Time;durP1;ratioP1;P1;durP2;ratioP2;P2;SDS_P1;SDS_P2;PMS_P1;PMS_P2;Temp;Humidity;BMP_temperature;BMP_pressure;BME280_temperature;BME280_humidity;BME280_pressure;Samples;Min_cycle;Max_cycle;Signal;HPM_P1;HPM_P2
2023/04/18 00:00:20;;;;;;;0.43;0.43;;;;;;;11.10;100.00;97209.34;5011820;28;20032;-77
2023/04/18 00:02:45;;;;;;;0.90;0.47;;;;;;;11.05;100.00;97202.56;5011560;28;20405;-77
2023/04/18 00:05:11;;;;;;;1.48;0.47;;;;;;;11.01;100.00;97207.31;5011639;28;20152;-77
2023/04/18 00:07:37;;;;;;;0.45;0.45;;;;;;;11.05;100.00;97205.25;5011406;28;20029;-77
2023/04/18 00:10:04;;;;;;;0.80;0.50;;;;;;;10.96;100.00;97201.41;5027765;28;20541;-77
2023/04/18 00:12:30;;;;;;;0.25;0.25;;;;;;;11.00;100.00;97205.59;5011284;28;20052;-78
2023/04/18 00:14:57;;;;;;;0.25;0.20;;;;;;;11.01;100.00;97209.13;5011300;28;20030;-78
2023/04/18 00:17:26;;;;;;;0.65;0.65;;;;;;;11.03;100.00;97216.06;5011258;28;20112;-78
2023/04/18 00:19:52;;;;;;;1.85;0.35;;;;;;;11.07;100.00;97214.06;5011462;28;20021;-77
2023/04/18 00:22:21;;;;;;;0.40;0.40;;;;;;;11.07;100.00;97212.25;5027739;28;20383;-76
2023/04/18 00:24:48;;;;;;;0.40;0.40;;;;;;;11.00;100.00;97202.91;5027693;28;20429;-77
2023/04/18 00:27:14;;;;;;;0.28;0.28;;;;;;;10.94;100.00;97208.69;5011300;28;20028;-76
2023/04/18 00:29:41;;;;;;;0.35;0.35;;;;;;;10.89;100.00;97213.47;5027285;28;20113;-78
2023/04/18 00:32:07;;;;;;;0.13;0.13;;;;;;;10.93;100.00;97216.81;5011171;28;20082;-78
2023/04/18 00:34:32;;;;;;;0.40;0.40;;;;;;;10.97;100.00;97215.63;5010831;28;20037;-78
2023/04/18 00:36:58;;;;;;;0.50;0.50;;;;;;;11.02;100.00;97217.03;5027362;28;20100;-77
2023/04/18 00:39:23;;;;;;;0.40;0.40;;;;;;;11.00;100.00;97213.63;5027023;28;20418;-78
2023/04/18 00:41:49;;;;;;;2.17;0.82;;;;;;;10.99;100.00;97211.88;5010833;28;20155;-77
2023/04/18 00:44:14;;;;;;;0.40;0.40;;;;;;;10.97;100.00;97205.78;5010501;28;20112;-77
2023/04/18 00:46:40;;;;;;;0.32;0.28;;;;;;;11.00;100.00;97215.44;5010553;28;20041;-77
2023/04/18 00:49:05;;;;;;;0.28;0.28;;;;;;;11.03;100.00;97216.06;5010483;28;20050;-77
2023/04/18 00:51:32;;;;;;;0.15;0.15;;;;;;;11.02;100.00;97214.34;5027333;28;20033;-77
2023/04/18 00:53:58;;;;;;;0.22;0.22;;;;;;;11.01;100.00;97211.78;5010406;28;20025;-78
2023/04/18 00:56:24;;;;;;;0.30;0.30;;;;;;;10.89;100.00;97202.78;5011080;28;20073;-77
2023/04/18 00:58:50;;;;;;;0.82;0.68;;;;;;;10.84;100.00;97188.88;5010665;28;20561;-77
2023/04/18 01:01:16;;;;;;;0.52;0.52;;;;;;;10.91;100.00;97202.69;5010415;28;20109;-76
2023/04/18 01:03:42;;;;;;;1.10;0.52;;;;;;;10.92;100.00;97202.56;5010563;28;20060;-77
2023/04/18 01:06:08;;;;;;;1.75;0.60;;;;;;;10.92;100.00;97201.72;5010379;28;20053;-77
2023/04/18 01:08:34;;;;;;;0.08;0.08;;;;;;;10.95;100.00;97205.03;5010314;28;20029;-78
2023/04/18 01:10:59;;;;;;;1.00;0.68;;;;;;;11.00;100.00;97205.59;5026278;28;20030;-77
2023/04/18 01:13:25;;;;;;;0.45;0.45;;;;;;;11.03;100.00;97205.38;5010736;28;20386;-77
2023/04/18 01:15:50;;;;;;;0.38;0.38;;;;;;;11.09;100.00;97215.66;5026656;28;20032;-78
2023/04/18 01:18:16;;;;;;;0.32;0.32;;;;;;;11.00;100.00;97212.75;5010297;28;20126;-78
2023/04/18 01:20:47;;;;;;;0.32;0.32;;;;;;;10.98;100.00;97204.84;5010223;28;20082;-78
2023/04/18 01:23:14;;;;;;;0.10;0.10;;;;;;;11.06;100.00;97210.50;5026584;28;20113;-78
2023/04/18 01:25:40;;;;;;;0.15;0.15;;;;;;;11.04;100.00;97207.09;5010100;28;20036;-78
2023/04/18 01:28:05;;;;;;;0.35;0.35;;;;;;;11.09;100.00;97210.28;5009918;28;20022;-77
2023/04/18 01:30:32;;;;;;;0.63;0.63;;;;;;;11.08;100.00;97208.56;5026633;28;20026;-77
2023/04/18 01:33:02;;;;;;;0.28;0.28;;;;;;;11.07;100.00;97195.31;5009986;28;20028;-77
2023/04/18 01:35:28;;;;;;;0.25;0.25;;;;;;;11.02;100.00;97192.06;5009870;28;20113;-77
2023/04/18 01:37:53;;;;;;;0.17;0.17;;;;;;;11.07;100.00;97196.19;5009933;28;20540;-77
2023/04/18 01:40:19;;;;;;;0.20;0.20;;;;;;;11.04;100.00;97188.38;5026407;28;20033;-77
2023/04/18 01:42:44;;;;;;;0.00;0.00;;;;;;;11.01;100.00;97198.41;5026373;28;20030;-77
2023/04/18 01:45:11;;;;;;;0.15;0.15;;;;;;;10.95;100.00;97183.63;5026248;28;20100;-77
2023/04/18 01:47:37;;;;;;;0.30;0.30;;;;;;;10.79;100.00;97182.97;5026366;28;20029;-76
2023/04/18 01:50:03;;;;;;;0.57;0.57;;;;;;;10.75;100.00;97184.16;5009403;28;20041;-76
2023/04/18 01:52:28;;;;;;;0.45;0.40;;;;;;;10.76;100.00;97200.09;5009649;28;20396;-76
2023/04/18 01:54:54;;;;;;;0.40;0.40;;;;;;;10.79;100.00;97201.72;5009805;28;20033;-76
2023/04/18 01:57:20;;;;;;;0.52;0.30;;;;;;;10.83;100.00;97212.06;5028185;28;20029;-75
2023/04/18 01:59:45;;;;;;;0.22;0.22;;;;;;;10.85;100.00;97206.63;5029801;28;20021;-76
2023/04/18 02:02:11;;;;;;;0.50;0.50;;;;;;;10.87;100.00;97208.25;5029514;28;20358;-75
2023/04/18 02:04:36;;;;;;;0.43;0.43;;;;;;;10.86;100.00;97208.34;5012988;28;20093;-76
2023/04/18 02:07:02;;;;;;;0.20;0.20;;;;;;;10.89;100.00;97211.66;5012767;28;20032;-76
2023/04/18 02:09:27;;;;;;;0.45;0.45;;;;;;;10.87;100.00;97205.56;5029603;28;20032;-76
2023/04/18 02:11:55;;;;;;;2.30;0.75;;;;;;;10.83;100.00;97213.91;5012734;28;20029;-76
2023/04/18 02:14:20;;;;;;;0.45;0.45;;;;;;;10.79;100.00;97210.59;5029458;28;20488;-77
2023/04/18 02:16:46;;;;;;;0.13;0.13;;;;;;;10.67;100.00;97205.22;5025466;28;20090;-77
2023/04/18 02:19:12;;;;;;;0.15;0.15;;;;;;;10.62;100.00;97218.03;5012780;28;20090;-77
2023/04/18 02:21:37;;;;;;;0.77;0.43;;;;;;;10.67;100.00;97218.59;5029326;28;20021;-77
2023/04/18 02:24:03;;;;;;;0.35;0.35;;;;;;;10.68;100.00;97222.97;5029132;28;20425;-76
2023/04/18 02:26:28;;;;;;;0.47;0.38;;;;;;;10.65;100.00;97225.84;5012847;28;20377;-77
2023/04/18 02:28:54;;;;;;;0.55;0.55;;;;;;;10.67;100.00;97226.63;5012922;28;20408;-77
2023/04/18 02:31:20;;;;;;;1.58;0.30;;;;;;;10.64;100.00;97227.66;5029164;28;20089;-75
2023/04/18 02:33:46;;;;;;;0.73;0.38;;;;;;;10.67;100.00;97234.66;5029151;28;20041;-75
2023/04/18 02:36:12;;;;;;;1.15;0.70;;;;;;;10.63;100.00;97223.28;5029033;28;20044;-77
2023/04/18 02:38:37;;;;;;;1.25;0.73;;;;;;;10.73;100.00;97232.41;5012616;28;20029;-78
2023/04/18 02:41:03;;;;;;;0.90;0.77;;;;;;;10.73;100.00;97223.53;5012498;28;20021;-78
2023/04/18 02:43:29;;;;;;;0.52;0.52;;;;;;;10.77;100.00;97230.38;5012655;28;20077;-77
2023/04/18 02:45:54;;;;;;;0.65;0.52;;;;;;;10.78;100.00;97221.38;5028987;28;20032;-76
2023/04/18 02:48:21;;;;;;;1.05;0.63;;;;;;;10.82;100.00;97228.25;5012258;28;20025;-76
2023/04/18 02:50:47;;;;;;;0.52;0.52;;;;;;;10.85;100.00;97234.25;5012314;28;20038;-76
2023/04/18 02:53:12;;;;;;;0.65;0.57;;;;;;;10.79;100.00;97229.31;5012093;28;20074;-77
2023/04/18 02:55:38;;;;;;;0.47;0.47;;;;;;;10.76;100.00;97223.31;5028981;28;20501;-76
2023/04/18 02:58:03;;;;;;;1.08;0.52;;;;;;;10.79;100.00;97233.81;4996111;28;20029;-77
2023/04/18 03:00:29;;;;;;;0.50;0.50;;;;;;;10.80;100.00;97214.97;5028816;28;20021;-77
2023/04/18 03:02:55;;;;;;;0.35;0.35;;;;;;;10.84;100.00;97237.03;5012340;28;20112;-77
2023/04/18 03:05:20;;;;;;;1.30;0.52;;;;;;;10.74;100.00;97230.56;5011805;28;20029;-77
2023/04/18 03:07:46;;;;;;;1.30;1.20;;;;;;;10.73;100.00;97223.53;5028642;28;20154;-77
2023/04/18 03:10:11;;;;;;;4.22;0.52;;;;;;;10.69;100.00;97230.03;5028451;28;20036;-77
2023/04/18 03:12:37;;;;;;;0.65;0.65;;;;;;;10.78;100.00;97232.09;5012133;28;20025;-76
2023/04/18 03:15:03;;;;;;;0.55;0.43;;;;;;;10.69;100.00;97232.72;5012004;28;20029;-77
2023/04/18 03:17:28;;;;;;;0.65;0.60;;;;;;;10.72;100.00;97237.84;5028190;28;20104;-76
2023/04/18 03:19:54;;;;;;;0.28;0.22;;;;;;;10.73;100.00;97232.41;5011780;28;20026;-76
2023/04/18 03:22:20;;;;;;;0.20;0.20;;;;;;;10.78;100.00;97240.13;5028070;28;20083;-76
2023/04/18 03:24:45;;;;;;;0.10;0.10;;;;;;;10.78;100.00;97240.97;5028250;28;20025;-76
2023/04/18 03:27:11;;;;;;;0.40;0.35;;;;;;;10.71;100.00;97228.09;5011909;28;20116;-77
2023/04/18 03:29:37;;;;;;;0.70;0.70;;;;;;;10.75;100.00;97240.31;5011792;28;20029;-77
2023/04/18 03:32:03;;;;;;;0.30;0.30;;;;;;;10.70;100.00;97240.66;5011884;28;20033;-77
2023/04/18 03:34:29;;;;;;;0.32;0.32;;;;;;;10.76;100.00;97244.72;5011377;28;20536;-76
2023/04/18 03:36:54;;;;;;;0.20;0.15;;;;;;;10.81;100.00;97250.59;5008433;28;20034;-75
2023/04/18 03:39:20;;;;;;;0.85;0.70;;;;;;;10.82;100.00;97255.00;5025880;28;20397;-76
2023/04/18 03:41:45;;;;;;;0.65;0.65;;;;;;;10.72;100.00;97254.75;5011499;28;20021;-76
2023/04/18 03:44:11;;;;;;;0.95;0.50;;;;;;;10.75;100.00;97261.72;5011449;28;20136;-78
2023/04/18 03:46:36;;;;;;;1.35;1.08;;;;;;;10.74;100.00;97254.66;5011456;28;20556;-76
2023/04/18 03:49:02;;;;;;;0.52;0.40;;;;;;;10.84;100.00;97269.13;5011300;28;20507;-77
2023/04/18 03:51:32;;;;;;;0.22;0.22;;;;;;;10.85;100.00;97262.81;5027676;28;20124;-76
2023/04/18 03:53:58;;;;;;;0.15;0.15;;;;;;;10.82;100.00;97268.38;5008451;28;20546;-77
2023/04/18 03:56:23;;;;;;;5.35;2.47;;;;;;;10.86;100.00;97267.19;5009093;28;20037;-76
2023/04/18 03:58:49;;;;;;;19.10;6.47;;;;;;;10.87;100.00;97258.22;5011216;28;20048;-77
2023/04/18 04:01:15;;;;;;;3.63;2.45;;;;;;;10.88;100.00;97259.94;5011100;28;20025;-77
2023/04/18 04:03:40;;;;;;;4.05;1.50;;;;;;;10.81;100.00;97258.63;5011160;28;20044;-82
2023/04/18 04:06:06;;;;;;;1.63;0.80;;;;;;;10.79;100.00;97260.56;5011857;28;20033;-81
2023/04/18 04:08:33;;;;;;;1.85;0.95;;;;;;;10.71;100.00;97262.88;5027988;28;20040;-81
2023/04/18 04:10:58;;;;;;;1.25;1.17;;;;;;;10.76;100.00;97260.78;5011088;28;20492;-79
2023/04/18 04:13:24;;;;;;;0.80;0.57;;;;;;;10.78;100.00;97270.41;5027842;28;20060;-80
2023/04/18 04:15:49;;;;;;;0.40;0.40;;;;;;;10.70;100.00;97259.38;5011923;28;20035;-80
2023/04/18 04:18:15;;;;;;;0.28;0.28;;;;;;;10.69;100.00;97262.13;5012221;28;20030;-80
2023/04/18 04:20:40;;;;;;;0.40;0.40;;;;;;;10.65;100.00;97269.50;5010349;28;20058;-76
2023/04/18 04:23:06;;;;;;;0.35;0.32;;;;;;;10.61;100.00;97270.66;5027708;28;20017;-75
2023/04/18 04:25:32;;;;;;;1.40;1.30;;;;;;;10.65;100.00;97274.84;5010831;28;20043;-77
2023/04/18 04:28:01;;;;;;;0.75;0.63;;;;;;;10.59;100.00;97282.41;5027512;28;20476;-77
2023/04/18 04:30:27;;;;;;;0.90;0.88;;;;;;;10.58;100.00;97273.53;5011263;28;20026;-76
2023/04/18 04:32:53;;;;;;;0.50;0.50;;;;;;;10.72;100.00;97288.69;5026985;28;20037;-76
2023/04/18 04:35:18;;;;;;;1.23;1.02;;;;;;;10.72;100.00;97286.88;5027430;28;20389;-77
2023/04/18 04:37:44;;;;;;;0.32;0.32;;;;;;;10.61;100.00;97289.38;5010718;28;20037;-76
2023/04/18 04:40:10;;;;;;;5.13;3.08;;;;;;;10.71;100.00;97295.84;5010780;28;20029;-76
2023/04/18 04:42:36;;;;;;;1.02;0.93;;;;;;;10.62;100.00;97280.41;5027334;28;20083;-79
2023/04/18 04:45:02;;;;;;;0.63;0.63;;;;;;;10.60;100.00;97287.69;5011724;28;20164;-79
2023/04/18 04:47:27;;;;;;;1.10;0.70;;;;;;;10.64;100.00;97281.16;5010879;28;20185;-80
2023/04/18 04:49:53;;;;;;;0.40;0.40;;;;;;;10.58;100.00;97283.41;5010842;28;20053;-77
2023/04/18 04:52:19;;;;;;;0.60;0.50;;;;;;;10.54;100.00;97287.22;5027249;28;20045;-76
2023/04/18 04:54:45;;;;;;;3.55;1.67;;;;;;;10.62;100.00;97287.56;5027485;28;20030;-76
2023/04/18 04:57:11;;;;;;;0.85;0.40;;;;;;;10.59;100.00;97285.09;5010583;28;20033;-76
2023/04/18 04:59:36;;;;;;;0.60;0.60;;;;;;;10.68;100.00;97284.47;5010761;28;20097;-76
2023/04/18 05:02:08;;;;;;;2.15;1.00;;;;;;;10.51;100.00;97260.69;5010314;28;20468;-80
2023/04/18 05:04:34;;;;;;;0.38;0.17;;;;;;;10.60;100.00;97271.63;5027730;28;20029;-76
2023/04/18 05:07:00;;;;;;;1.13;1.02;;;;;;;10.62;100.00;97267.03;5026633;28;20037;-76
2023/04/18 05:09:25;;;;;;;1.52;0.85;;;;;;;10.79;100.00;97282.84;5010521;28;20049;-76
2023/04/18 05:11:51;;;;;;;0.55;0.55;;;;;;;10.78;100.00;97285.59;5026567;28;20021;-76
2023/04/18 05:14:16;;;;;;;3.13;1.67;;;;;;;10.93;100.00;97294.41;5026558;28;20035;-76
2023/04/18 05:16:42;;;;;;;1.40;1.30;;;;;;;10.82;100.00;97282.63;5009931;28;20404;-76
2023/04/18 05:19:07;;;;;;;1.73;1.08;;;;;;;10.89;100.00;97285.72;5026784;28;20029;-76
2023/04/18 05:22:36;;;;;;;1.67;1.20;;;;;;;10.81;100.00;97258.63;5010602;28;20507;-77
2023/04/18 05:25:01;;;;;;;0.57;0.50;;;;;;;10.92;100.00;97290.84;5027966;28;20052;-77
2023/04/18 05:27:27;;;;;;;9.68;3.70;;;;;;;10.95;100.00;97287.97;5010156;28;20033;-76
2023/04/18 05:29:52;;;;;;;7.57;4.97;;;;;;;11.01;100.00;97290.28;5009858;28;20025;-76
2023/04/18 05:32:18;;;;;;;1.75;1.25;;;;;;;11.01;100.00;97287.59;5012140;28;20032;-76
2023/04/18 05:34:44;;;;;;;0.85;0.75;;;;;;;10.96;100.00;97289.69;5013754;28;20021;-76
2023/04/18 05:37:09;;;;;;;0.25;0.25;;;;;;;10.97;100.00;97294.09;5029980;28;20033;-77
2023/04/18 05:39:35;;;;;;;0.50;0.50;;;;;;;10.97;100.00;97285.22;5013553;28;20041;-77
2023/04/18 05:42:01;;;;;;;0.70;0.30;;;;;;;10.87;100.00;97288.50;5029896;28;20094;-77
2023/04/18 05:44:28;;;;;;;1.45;1.10;;;;;;;10.93;100.00;97283.69;5030031;28;20070;-77
2023/04/18 05:46:53;;;;;;;0.47;0.47;;;;;;;10.79;100.00;97281.97;5013608;28;20033;-77
2023/04/18 05:49:19;;;;;;;0.75;0.60;;;;;;;10.80;100.00;97284.53;5029539;28;20121;-76
2023/04/18 05:51:45;;;;;;;5.00;2.58;;;;;;;10.78;100.00;97290.94;5013249;28;20113;-77
2023/04/18 05:54:11;;;;;;;3.08;1.35;;;;;;;10.78;100.00;97288.28;5029730;28;20033;-77
2023/04/18 05:56:36;;;;;;;2.75;0.85;;;;;;;10.82;100.00;97292.47;5029689;28;20044;-76
2023/04/18 05:59:02;;;;;;;0.80;0.80;;;;;;;10.83;100.00;97299.50;5013184;28;20037;-77
2023/04/18 06:01:27;;;;;;;0.90;0.90;;;;;;;10.78;100.00;97290.94;5013218;28;20025;-76
2023/04/18 06:03:53;;;;;;;5.45;2.08;;;;;;;10.80;100.00;97299.72;5013224;28;20033;-76
2023/04/18 06:06:19;;;;;;;6.40;3.17;;;;;;;10.84;100.00;97290.53;5029497;28;20037;-77
2023/04/18 06:08:45;;;;;;;5.82;2.70;;;;;;;10.83;100.00;97283.44;5013137;28;20030;-76
2023/04/18 06:11:10;;;;;;;2.58;2.38;;;;;;;10.75;100.00;97281.31;5030755;28;20025;-77
2023/04/18 06:13:36;;;;;;;1.80;1.42;;;;;;;10.87;100.00;97284.97;5013015;28;20026;-76
2023/04/18 06:16:02;;;;;;;2.45;2.25;;;;;;;10.94;100.00;97291.63;5013054;28;20425;-75
2023/04/18 06:18:28;;;;;;;1.08;1.00;;;;;;;10.95;100.00;97285.31;5012806;28;20064;-75
2023/04/18 06:20:53;;;;;;;1.08;0.60;;;;;;;10.89;100.00;97272.34;5012842;28;20065;-75
2023/04/18 06:23:19;;;;;;;0.20;0.20;;;;;;;10.88;100.00;97279.53;5029283;28;20086;-75
2023/04/18 06:25:45;;;;;;;0.63;0.63;;;;;;;10.85;100.00;97277.06;5012974;28;20034;-77
2023/04/18 06:28:10;;;;;;;0.20;0.20;;;;;;;10.87;100.00;97275.13;5013076;28;20082;-76
2023/04/18 06:30:36;;;;;;;1.30;0.88;;;;;;;10.92;100.00;97271.31;5029256;28;20041;-77
2023/04/18 06:33:01;;;;;;;7.43;0.98;;;;;;;10.89;100.00;97267.84;5030615;28;20184;-76
2023/04/18 06:35:30;;;;;;;1.10;1.05;;;;;;;10.94;100.00;97275.59;5012547;28;20033;-76
2023/04/18 06:37:56;;;;;;;0.63;0.47;;;;;;;10.77;100.00;97251.75;5012836;28;20115;-75
2023/04/18 06:40:21;;;;;;;0.63;0.63;;;;;;;10.82;100.00;97276.41;5029013;28;20534;-77
2023/04/18 06:42:47;;;;;;;0.73;0.65;;;;;;;10.91;100.00;97275.78;5028340;28;20039;-76
2023/04/18 06:45:12;;;;;;;0.68;0.68;;;;;;;10.87;100.00;97269.78;5029033;28;20029;-76
2023/04/18 06:47:39;;;;;;;4.88;2.17;;;;;;;10.92;100.00;97277.47;5012506;28;20104;-74
2023/04/18 06:50:06;;;;;;;0.55;0.55;;;;;;;10.96;100.00;97264.75;5028890;28;20060;-75
2023/04/18 06:52:32;;;;;;;1.17;1.08;;;;;;;10.98;100.00;97266.41;5012138;28;20038;-76
2023/04/18 06:54:57;;;;;;;4.20;1.60;;;;;;;11.06;100.00;97253.34;5029115;28;20021;-76
2023/04/18 06:57:23;;;;;;;3.28;1.35;;;;;;;11.14;100.00;97256.31;5012184;28;20032;-77
2023/04/18 06:59:48;;;;;;;1.30;0.82;;;;;;;11.13;100.00;97257.31;5029091;28;20025;-77
2023/04/18 07:02:14;;;;;;;0.82;0.82;;;;;;;11.08;100.00;97243.38;5028859;28;20446;-76
2023/04/18 07:04:40;;;;;;;0.75;0.65;;;;;;;11.03;100.00;97250.00;5028906;28;20549;-76
2023/04/18 07:07:05;;;;;;;0.50;0.43;;;;;;;11.00;100.00;97253.75;5012361;28;20029;-76
2023/04/18 07:09:31;;;;;;;0.75;0.75;;;;;;;10.99;100.00;97257.38;5012320;28;20040;-76
2023/04/18 07:11:56;;;;;;;0.63;0.38;;;;;;;10.91;100.00;97265.09;5028684;28;20025;-77
2023/04/18 07:14:23;;;;;;;0.50;0.32;;;;;;;10.86;100.00;97264.53;5028785;28;20044;-78
2023/04/18 07:16:49;;;;;;;0.47;0.35;;;;;;;10.97;100.00;97259.31;5028948;28;20082;-78
2023/04/18 07:19:15;;;;;;;0.22;0.22;;;;;;;10.91;100.00;97251.72;5029049;28;20021;-75
2023/04/18 07:21:42;;;;;;;2.72;1.80;;;;;;;10.89;100.00;97261.63;5028362;28;20021;-76
2023/04/18 07:24:08;;;;;;;1.73;0.77;;;;;;;10.99;100.00;97259.19;5012475;28;20401;-77
2023/04/18 07:26:34;;;;;;;2.08;0.82;;;;;;;10.90;100.00;97247.31;5012065;28;20033;-76
2023/04/18 07:29:00;;;;;;;0.63;0.60;;;;;;;10.92;100.00;97250.72;5012114;28;20017;-75
2023/04/18 07:31:27;;;;;;;1.85;0.70;;;;;;;11.04;100.00;97260.63;5011778;28;20030;-76
2023/04/18 07:33:53;;;;;;;1.13;0.95;;;;;;;11.13;100.00;97254.63;5012236;28;20404;-78
2023/04/18 07:36:19;;;;;;;2.45;1.73;;;;;;;11.21;100.00;97246.91;5028841;28;20527;-76
2023/04/18 07:38:45;;;;;;;3.88;2.97;;;;;;;11.21;100.00;97246.06;5011931;28;20045;-76
2023/04/18 07:41:11;;;;;;;1.40;1.10;;;;;;;11.13;100.00;97232.38;5028474;28;20106;-76
2023/04/18 07:43:37;;;;;;;2.78;2.35;;;;;;;11.10;100.00;97251.31;5028364;28;20057;-76
2023/04/18 07:46:04;;;;;;;10.48;2.58;;;;;;;11.09;100.00;97246.91;5011886;28;20036;-78
2023/04/18 07:48:30;;;;;;;4.97;3.22;;;;;;;11.13;100.00;97243.94;5009190;28;20057;-77
2023/04/18 07:50:55;;;;;;;5.18;3.28;;;;;;;11.18;100.00;97255.16;5011492;28;20073;-76
2023/04/18 07:53:21;;;;;;;1.23;1.13;;;;;;;11.24;100.00;97248.53;5011570;28;20110;-76
2023/04/18 07:55:46;;;;;;;1.33;1.23;;;;;;;11.48;100.00;97260.19;5003771;28;20548;-77
2023/04/18 07:58:12;;;;;;;2.25;1.70;;;;;;;11.54;100.00;97242.84;5011647;28;20029;-77
2023/04/18 08:00:38;;;;;;;3.22;2.58;;;;;;;11.74;100.00;97229.78;5008518;28;20025;-76
2023/04/18 08:03:09;;;;;;;5.32;3.22;;;;;;;11.90;100.00;97232.22;5010742;28;20025;-76
2023/04/18 08:05:35;;;;;;;2.00;1.42;;;;;;;11.72;100.00;97220.97;5028328;28;20022;-76
2023/04/18 08:08:01;;;;;;;2.88;2.25;;;;;;;11.85;100.00;97235.22;5011465;28;20133;-76
2023/04/18 08:10:26;;;;;;;5.22;3.00;;;;;;;11.71;100.00;97227.34;5011562;28;20030;-76
2023/04/18 08:12:52;;;;;;;1.85;1.35;;;;;;;11.76;100.00;97227.84;5011528;28;20386;-76
2023/04/18 08:15:17;;;;;;;18.90;3.63;;;;;;;11.71;100.00;97229.16;5011545;28;20033;-77
2023/04/18 08:17:44;;;;;;;3.50;1.65;;;;;;;11.89;100.00;97236.72;5027941;28;20033;-77
2023/04/18 08:20:11;;;;;;;0.50;0.50;;;;;;;12.17;100.00;97226.66;5027671;28;20066;-77
2023/04/18 08:22:37;;;;;;;2.83;1.25;;;;;;;12.12;100.00;97218.13;5011735;28;20040;-77
2023/04/18 08:25:03;;;;;;;14.98;1.90;;;;;;;12.24;100.00;97223.41;5011148;28;20033;-77
2023/04/18 08:27:29;;;;;;;1.00;0.30;;;;;;;12.03;100.00;97219.63;5011287;28;20408;-77
2023/04/18 08:29:55;;;;;;;0.75;0.45;;;;;;;11.93;100.00;97218.59;5011125;28;20116;-77
2023/04/18 08:32:21;;;;;;;13.57;0.90;;;;;;;11.65;100.00;97224.19;5011324;28;20530;-77
2023/04/18 08:34:46;;;;;;;0.57;0.40;;;;;;;11.61;100.00;97223.56;5010945;28;20063;-77
2023/04/18 08:37:13;;;;;;;2.67;1.67;;;;;;;11.63;100.00;97236.84;5010884;28;20171;-77
2023/04/18 08:39:38;;;;;;;0.35;0.35;;;;;;;11.48;100.00;97238.78;5010993;28;20029;-77
2023/04/18 08:42:05;;;;;;;1.48;0.47;;;;;;;11.54;100.00;97245.50;5010828;28;20025;-77
2023/04/18 08:44:31;;;;;;;0.35;0.35;;;;;;;11.63;100.00;97247.56;5027460;28;20472;-78
2023/04/18 08:46:58;;;;;;;1.35;1.00;;;;;;;11.62;100.00;97245.84;5027320;28;20025;-78
2023/04/18 08:49:24;;;;;;;0.55;0.40;;;;;;;11.67;100.00;97254.41;5010843;28;20049;-77
2023/04/18 08:51:50;;;;;;;0.90;0.52;;;;;;;11.75;100.00;97249.41;5009908;28;20488;-77
2023/04/18 08:54:19;;;;;;;0.20;0.20;;;;;;;11.87;100.00;97245.84;5010974;28;20136;-77
2023/04/18 08:56:45;;;;;;;0.52;0.52;;;;;;;11.89;100.00;97246.59;5027182;28;20068;-77
2023/04/18 08:59:11;;;;;;;1.77;1.05;;;;;;;11.96;100.00;97223.75;5027220;28;20520;-77
2023/04/18 09:02:04;;;;;;;0.40;0.40;;;;;;;12.11;100.00;97227.97;5027223;28;20455;-77
2023/04/18 09:04:35;;;;;;;0.70;0.70;;;;;;;12.17;100.00;97216.81;5027019;28;20129;-78
2023/04/18 09:07:06;;;;;;;1.88;0.73;;;;;;;12.17;100.00;97205.22;5028113;28;20035;-78
2023/04/18 09:09:51;;;;;;;0.65;0.65;;;;;;;12.18;100.00;97210.44;5010598;28;20338;-78
2023/04/18 09:12:21;;;;;;;0.70;0.43;;;;;;;12.27;100.00;97207.13;5027367;28;20040;-78
2023/04/18 09:14:55;;;;;;;5.30;0.98;;;;;;;12.36;100.00;97206.44;5009138;28;20029;-76
2023/04/18 09:17:32;;;;;;;0.65;0.47;;;;;;;12.47;100.00;97203.78;5010887;28;20025;-76
2023/04/18 09:19:59;;;;;;;0.88;0.50;;;;;;;12.48;100.00;97200.16;5010466;28;20025;-76
2023/04/18 09:22:25;;;;;;;2.88;0.60;;;;;;;12.30;100.00;97190.81;5010444;28;20090;-77
2023/04/18 09:24:54;;;;;;;0.40;0.40;;;;;;;12.27;100.00;97209.81;5026725;28;20112;-76
2023/04/18 09:27:22;;;;;;;1.05;0.80;;;;;;;12.04;100.00;97199.03;5027127;28;20037;-75
2023/04/18 09:29:50;;;;;;;0.57;0.57;;;;;;;12.13;100.00;97204.59;5010505;28;20021;-77
2023/04/18 09:32:28;;;;;;;0.32;0.32;;;;;;;11.98;100.00;97204.84;5010477;28;20032;-77
2023/04/18 09:35:02;;;;;;;0.47;0.47;;;;;;;12.00;100.00;97208.28;5009367;28;20030;-76
2023/04/18 09:37:28;;;;;;;0.95;0.80;;;;;;;12.00;100.00;97216.34;5010264;28;20037;-78
2023/04/18 09:39:54;;;;;;;22.10;1.02;;;;;;;12.16;100.00;97220.44;5026621;28;20036;-77
2023/04/18 09:42:20;;;;;;;0.90;0.90;;;;;;;12.12;100.00;97199.34;5026859;28;20029;-77
2023/04/18 09:45:05;;;;;;;0.98;0.50;;;;;;;12.37;100.00;97201.91;5009906;28;20036;-76
2023/04/18 09:47:33;;;;;;;0.93;0.93;;;;;;;12.36;100.00;97198.38;5094256;28;20404;-76
2023/04/18 09:50:00;;;;;;;0.63;0.57;;;;;;;12.47;100.00;97193.06;5009956;28;20065;-77
2023/04/18 09:52:33;;;;;;;0.32;0.32;;;;;;;12.36;100.00;97193.03;5026533;28;20041;-77
2023/04/18 09:55:04;;;;;;;0.57;0.55;;;;;;;12.30;100.00;97184.56;5010083;28;20093;-77
2023/04/18 09:57:31;;;;;;;0.30;0.30;;;;;;;12.29;100.00;97189.06;5026596;28;20039;-77
2023/04/18 10:00:12;;;;;;;3.75;1.45;;;;;;;12.33;100.00;97193.25;5010085;28;20428;-77
2023/04/18 10:02:46;;;;;;;2.78;1.15;;;;;;;12.12;100.00;97192.13;5026374;28;20056;-77
2023/04/18 10:05:12;;;;;;;0.30;0.30;;;;;;;12.24;100.00;97195.75;5009894;28;20026;-77
2023/04/18 10:07:38;;;;;;;0.40;0.35;;;;;;;12.36;100.00;97189.47;5009777;28;20156;-76
2023/04/18 10:10:05;;;;;;;0.60;0.60;;;;;;;12.31;100.00;97176.41;5009811;28;20525;-77
2023/04/18 10:12:30;;;;;;;0.22;0.22;;;;;;;12.36;100.00;97179.63;5009968;28;20070;-78
2023/04/18 10:14:56;;;;;;;0.65;0.43;;;;;;;12.42;100.00;97172.94;5009586;28;20128;-76
2023/04/18 10:17:22;;;;;;;0.40;0.40;;;;;;;12.40;100.00;97175.72;5026936;28;20021;-76
2023/04/18 10:20:31;;;;;;;1.23;0.90;;;;;;;12.57;100.00;97170.91;5029393;28;20040;-78
2023/04/18 10:22:58;;;;;;;0.28;0.28;;;;;;;12.36;100.00;97150.09;5027424;28;20149;-77
2023/04/18 10:25:40;;;;;;;1.02;0.68;;;;;;;12.45;100.00;97167.31;5029546;28;20041;-76
2023/04/18 10:28:06;;;;;;;0.40;0.40;;;;;;;12.52;100.00;97183.81;5029447;28;20496;-77
2023/04/18 10:30:41;;;;;;;0.40;0.40;;;;;;;12.43;100.00;97174.63;5013017;28;20029;-77
2023/04/18 10:33:26;;;;;;;0.30;0.30;;;;;;;12.30;100.00;97169.34;5029281;28;20037;-75
2023/04/18 10:36:01;;;;;;;0.05;0.05;;;;;;;12.42;100.00;97179.16;5029760;28;20492;-76
2023/04/18 10:38:26;;;;;;;0.55;0.25;;;;;;;12.56;100.00;97169.19;5029651;28;20030;-75
2023/04/18 10:40:52;;;;;;;1.48;1.05;;;;;;;12.48;100.00;97177.81;5012918;28;20396;-76
2023/04/18 10:43:18;;;;;;;0.10;0.10;;;;;;;12.46;100.00;97159.16;5013160;28;20033;-77
2023/04/18 10:45:43;;;;;;;2.35;0.90;;;;;;;12.38;100.00;97150.84;5012994;28;20032;-76
2023/04/18 10:48:29;;;;;;;0.77;0.77;;;;;;;12.41;100.00;97161.34;5029501;28;20129;-77
2023/04/18 10:51:18;;;;;;;0.70;0.70;;;;;;;12.48;100.00;97173.31;5029502;28;20160;-77
2023/04/18 10:53:55;;;;;;;1.50;1.40;;;;;;;12.48;100.00;97159.06;5012965;28;20056;-77
2023/04/18 10:56:21;;;;;;;0.85;0.63;;;;;;;12.54;100.00;97176.50;5012866;28;20068;-77
2023/04/18 10:58:50;;;;;;;5.15;0.85;;;;;;;12.38;100.00;97164.25;5029044;28;20061;-77
2023/04/18 11:01:24;;;;;;;0.73;0.73;;;;;;;12.28;100.00;97154.31;5010699;28;20370;-76
2023/04/18 11:03:50;;;;;;;3.00;1.20;;;;;;;12.23;100.00;97157.34;5027381;28;20041;-76
2023/04/18 11:06:15;;;;;;;2.53;1.63;;;;;;;12.32;100.00;97153.13;5010962;28;20022;-76
2023/04/18 11:08:41;;;;;;;5.38;1.67;;;;;;;12.49;100.00;97152.69;5027087;28;20068;-76
2023/04/18 11:11:09;;;;;;;3.90;2.38;;;;;;;12.62;100.00;97158.84;5027051;28;20038;-76
2023/04/18 11:13:35;;;;;;;0.90;0.43;;;;;;;12.73;100.00;97158.91;5011013;28;20068;-77
2023/04/18 11:16:01;;;;;;;0.70;0.47;;;;;;;12.84;100.00;97147.31;5010551;28;20520;-78
2023/04/18 11:18:39;;;;;;;0.17;0.17;;;;;;;12.98;100.00;97136.38;5010117;28;20499;-77
2023/04/18 11:21:05;;;;;;;0.98;0.50;;;;;;;12.88;100.00;97146.97;5010149;28;20017;-77
2023/04/18 11:23:30;;;;;;;0.10;0.10;;;;;;;13.12;100.00;97140.69;5026705;28;20043;-77